sensor_id;sensor_type;location;lat;lon;timestamp;pressure;altitude;pressure_sealevel;temperature;humidity
60589;BME280;46421;48.610;9.334;2023-02-08T00:01:37;99962.38;;;-5.14;89.05
60589;BME280;46421;48.610;9.334;2023-02-08T00:04:03;99950.78;;;-4.96;84.83
60589;BME280;46421;48.610;9.334;2023-02-08T00:06:28;99951.50;;;-5.33;87.71
60589;BME280;46421;48.610;9.334;2023-02-08T00:08:54;99951.53;;;-5.35;88.27
60589;BME280;46421;48.610;9.334;2023-02-08T00:11:19;99947.69;;;-4.73;85.20
60589;BME280;46421;48.610;9.334;2023-02-08T00:13:45;99939.63;;;-5.00;86.26
60589;BME280;46421;48.610;9.334;2023-02-08T00:16:12;99925.53;;;-4.89;84.97
60589;BME280;46421;48.610;9.334;2023-02-08T00:18:37;99932.00;;;-5.53;85.75
60589;BME280;46421;48.610;9.334;2023-02-08T00:21:11;99928.03;;;-5.73;88.37
60589;BME280;46421;48.610;9.334;2023-02-08T00:23:37;99931.91;;;-5.48;89.49
60589;BME280;46421;48.610;9.334;2023-02-08T00:26:03;99916.97;;;-4.54;82.71
60589;BME280;46421;48.610;9.334;2023-02-08T00:28:29;99927.19;;;-5.28;84.51
60589;BME280;46421;48.610;9.334;2023-02-08T00:30:54;99924.19;;;-5.51;86.62
60589;BME280;46421;48.610;9.334;2023-02-08T00:33:19;99936.56;;;-6.16;89.33
60589;BME280;46421;48.610;9.334;2023-02-08T00:35:45;99927.66;;;-5.09;86.63
60589;BME280;46421;48.610;9.334;2023-02-08T00:38:10;99923.47;;;-4.34;81.52
60589;BME280;46421;48.610;9.334;2023-02-08T00:40:35;99922.75;;;-4.80;84.77
60589;BME280;46421;48.610;9.334;2023-02-08T00:43:01;99919.28;;;-5.20;83.92
60589;BME280;46421;48.610;9.334;2023-02-08T00:45:27;99923.59;;;-5.66;86.93
60589;BME280;46421;48.610;9.334;2023-02-08T00:47:52;99915.31;;;-5.87;87.00
60589;BME280;46421;48.610;9.334;2023-02-08T00:50:18;99919.69;;;-5.90;88.49
60589;BME280;46421;48.610;9.334;2023-02-08T00:52:43;99914.91;;;-4.77;84.70
60589;BME280;46421;48.610;9.334;2023-02-08T00:55:08;99930.81;;;-5.36;84.31
60589;BME280;46421;48.610;9.334;2023-02-08T00:57:34;99926.16;;;-5.19;87.79
60589;BME280;46421;48.610;9.334;2023-02-08T00:59:59;99926.13;;;-4.77;84.27
60589;BME280;46421;48.610;9.334;2023-02-08T01:02:25;99921.88;;;-5.20;86.85
60589;BME280;46421;48.610;9.334;2023-02-08T01:04:50;99918.91;;;-5.03;83.02
60589;BME280;46421;48.610;9.334;2023-02-08T01:07:16;99926.56;;;-5.88;88.40
60589;BME280;46421;48.610;9.334;2023-02-08T01:09:41;99932.88;;;-6.03;90.22
60589;BME280;46421;48.610;9.334;2023-02-08T01:12:07;99931.00;;;-5.02;87.33
60589;BME280;46421;48.610;9.334;2023-02-08T01:14:32;99912.31;;;-4.77;82.39
60589;BME280;46421;48.610;9.334;2023-02-08T01:16:58;99934.00;;;-5.22;86.92
60589;BME280;46421;48.610;9.334;2023-02-08T01:19:23;99932.38;;;-5.26;84.79
60589;BME280;46421;48.610;9.334;2023-02-08T01:21:48;99927.75;;;-5.57;88.92
60589;BME280;46421;48.610;9.334;2023-02-08T01:24:14;99935.09;;;-5.34;88.51
60589;BME280;46421;48.610;9.334;2023-02-08T01:26:39;99928.38;;;-5.44;85.80
60589;BME280;46421;48.610;9.334;2023-02-08T01:29:05;99929.63;;;-5.65;88.71
60589;BME280;46421;48.610;9.334;2023-02-08T01:31:33;99920.47;;;-4.94;86.39
60589;BME280;46421;48.610;9.334;2023-02-08T01:34:00;99923.38;;;-5.53;85.67
60589;BME280;46421;48.610;9.334;2023-02-08T01:36:27;99919.75;;;-5.92;88.94
60589;BME280;46421;48.610;9.334;2023-02-08T01:38:53;99915.88;;;-5.24;86.58
60589;BME280;46421;48.610;9.334;2023-02-08T01:41:24;99904.06;;;-5.38;86.28
60589;BME280;46421;48.610;9.334;2023-02-08T01:46:32;99901.06;;;-5.62;85.60
60589;BME280;46421;48.610;9.334;2023-02-08T01:49:00;99907.66;;;-5.94;87.46
60589;BME280;46421;48.610;9.334;2023-02-08T01:51:29;99902.25;;;-5.33;88.01
60589;BME280;46421;48.610;9.334;2023-02-08T01:53:57;99902.25;;;-5.35;87.52
60589;BME280;46421;48.610;9.334;2023-02-08T01:56:29;99891.63;;;-6.13;87.98
60589;BME280;46421;48.610;9.334;2023-02-08T01:59:05;99882.00;;;-5.60;87.73
60589;BME280;46421;48.610;9.334;2023-02-08T02:01:33;99882.25;;;-6.19;89.76
60589;BME280;46421;48.610;9.334;2023-02-08T02:04:01;99892.28;;;-6.00;89.90
60589;BME280;46421;48.610;9.334;2023-02-08T02:06:31;99894.06;;;-6.04;90.13
60589;BME280;46421;48.610;9.334;2023-02-08T02:09:11;99883.06;;;-5.25;85.69
60589;BME280;46421;48.610;9.334;2023-02-08T02:11:38;99882.41;;;-5.81;88.10
60589;BME280;46421;48.610;9.334;2023-02-08T02:14:04;99879.19;;;-5.47;87.42
60589;BME280;46421;48.610;9.334;2023-02-08T02:16:30;99884.75;;;-6.14;88.51
60589;BME280;46421;48.610;9.334;2023-02-08T02:30:23;99872.31;;;-5.95;86.82
60589;BME280;46421;48.610;9.334;2023-02-08T02:33:21;99872.41;;;-6.52;88.50
60589;BME280;46421;48.610;9.334;2023-02-08T02:36:08;99878.06;;;-6.26;88.31
60589;BME280;46421;48.610;9.334;2023-02-08T02:39:04;99867.97;;;-5.95;86.83
60589;BME280;46421;48.610;9.334;2023-02-08T02:41:43;99870.41;;;-5.40;82.19
60589;BME280;46421;48.610;9.334;2023-02-08T02:44:41;99860.09;;;-6.36;84.59
60589;BME280;46421;48.610;9.334;2023-02-08T02:50:05;99863.72;;;-6.49;87.50
60589;BME280;46421;48.610;9.334;2023-02-08T02:52:38;99853.69;;;-5.69;84.32
60589;BME280;46421;48.610;9.334;2023-02-08T02:55:13;99859.56;;;-6.06;84.75
60589;BME280;46421;48.610;9.334;2023-02-08T02:57:41;99860.19;;;-6.43;86.08
60589;BME280;46421;48.610;9.334;2023-02-08T03:00:09;99864.75;;;-6.58;85.25
60589;BME280;46421;48.610;9.334;2023-02-08T03:02:35;99873.47;;;-6.65;86.52
60589;BME280;46421;48.610;9.334;2023-02-08T03:05:00;99860.09;;;-5.89;84.58
60589;BME280;46421;48.610;9.334;2023-02-08T03:07:59;99869.75;;;-6.45;85.21
60589;BME280;46421;48.610;9.334;2023-02-08T03:10:38;99871.59;;;-6.54;85.85
60589;BME280;46421;48.610;9.334;2023-02-08T03:16:28;99869.34;;;-6.77;87.26
60589;BME280;46421;48.610;9.334;2023-02-08T03:22:01;99848.59;;;-6.75;88.54
60589;BME280;46421;48.610;9.334;2023-02-08T03:27:06;99848.38;;;-6.58;85.83
60589;BME280;46421;48.610;9.334;2023-02-08T03:38:34;99859.56;;;-6.58;85.97
60589;BME280;46421;48.610;9.334;2023-02-08T03:41:03;99860.44;;;-6.57;85.71
60589;BME280;46421;48.610;9.334;2023-02-08T03:43:36;99857.59;;;-6.43;88.09
60589;BME280;46421;48.610;9.334;2023-02-08T03:46:07;99858.91;;;-6.17;85.27
60589;BME280;46421;48.610;9.334;2023-02-08T03:48:37;99856.09;;;-6.57;85.38
60589;BME280;46421;48.610;9.334;2023-02-08T03:51:05;99844.38;;;-6.79;85.42
60589;BME280;46421;48.610;9.334;2023-02-08T03:53:31;99849.25;;;-6.59;87.83
60589;BME280;46421;48.610;9.334;2023-02-08T03:56:07;99859.03;;;-6.24;85.00
60589;BME280;46421;48.610;9.334;2023-02-08T03:58:41;99826.47;;;-6.93;84.87
60589;BME280;46421;48.610;9.334;2023-02-08T04:01:16;99827.84;;;-6.69;86.01
60589;BME280;46421;48.610;9.334;2023-02-08T04:03:44;99853.00;;;-6.80;85.26
60589;BME280;46421;48.610;9.334;2023-02-08T04:06:14;99858.50;;;-7.02;87.38
60589;BME280;46421;48.610;9.334;2023-02-08T04:08:40;99861.72;;;-6.88;86.81
60589;BME280;46421;48.610;9.334;2023-02-08T04:11:05;99838.38;;;-6.81;86.57
60589;BME280;46421;48.610;9.334;2023-02-08T04:13:30;99853.09;;;-6.87;87.24
60589;BME280;46421;48.610;9.334;2023-02-08T04:15:56;99846.69;;;-6.61;85.79
60589;BME280;46421;48.610;9.334;2023-02-08T04:18:21;99847.97;;;-6.90;87.53
60589;BME280;46421;48.610;9.334;2023-02-08T04:20:46;99855.72;;;-6.90;86.15
60589;BME280;46421;48.610;9.334;2023-02-08T04:23:12;99855.94;;;-7.04;87.55
60589;BME280;46421;48.610;9.334;2023-02-08T04:25:37;99855.72;;;-6.90;87.64
60589;BME280;46421;48.610;9.334;2023-02-08T04:28:03;99850.94;;;-7.18;88.44
60589;BME280;46421;48.610;9.334;2023-02-08T04:30:28;99858.69;;;-7.18;87.53
60589;BME280;46421;48.610;9.334;2023-02-08T04:32:53;99850.88;;;-7.15;88.38
60589;BME280;46421;48.610;9.334;2023-02-08T04:35:19;99835.88;;;-6.88;88.58
60589;BME280;46421;48.610;9.334;2023-02-08T04:37:44;99844.84;;;-7.13;87.78
60589;BME280;46421;48.610;9.334;2023-02-08T04:40:10;99849.78;;;-6.95;87.78
60589;BME280;46421;48.610;9.334;2023-02-08T04:42:35;99839.72;;;-7.17;87.51
60589;BME280;46421;48.610;9.334;2023-02-08T04:45:00;99846.38;;;-6.99;87.56
60589;BME280;46421;48.610;9.334;2023-02-08T04:47:26;99838.88;;;-7.19;87.52
60589;BME280;46421;48.610;9.334;2023-02-08T04:49:51;99840.56;;;-7.16;87.66
60589;BME280;46421;48.610;9.334;2023-02-08T04:52:16;99829.72;;;-6.80;86.39
60589;BME280;46421;48.610;9.334;2023-02-08T04:54:42;99834.66;;;-7.24;86.98
60589;BME280;46421;48.610;9.334;2023-02-08T04:57:11;99835.59;;;-7.32;88.16
60589;BME280;46421;48.610;9.334;2023-02-08T04:59:36;99828.19;;;-6.92;89.31
60589;BME280;46421;48.610;9.334;2023-02-08T05:02:02;99825.31;;;-6.75;86.22
60589;BME280;46421;48.610;9.334;2023-02-08T05:04:29;99829.34;;;-7.12;87.08
60589;BME280;46421;48.610;9.334;2023-02-08T05:06:54;99818.97;;;-7.10;86.47
60589;BME280;46421;48.610;9.334;2023-02-08T05:09:19;99817.78;;;-6.34;83.79
60589;BME280;46421;48.610;9.334;2023-02-08T05:11:45;99825.09;;;-6.58;84.60
60589;BME280;46421;48.610;9.334;2023-02-08T05:14:10;99822.13;;;-6.91;85.06
60589;BME280;46421;48.610;9.334;2023-02-08T05:16:35;99818.78;;;-6.96;85.69
60589;BME280;46421;48.610;9.334;2023-02-08T05:19:01;99813.28;;;-6.76;85.81
60589;BME280;46421;48.610;9.334;2023-02-08T05:21:26;99826.66;;;-7.06;84.40
60589;BME280;46421;48.610;9.334;2023-02-08T05:23:51;99815.50;;;-7.09;84.92
60589;BME280;46421;48.610;9.334;2023-02-08T05:26:17;99827.75;;;-7.22;86.37
60589;BME280;46421;48.610;9.334;2023-02-08T05:28:43;99796.63;;;-6.58;84.14
60589;BME280;46421;48.610;9.334;2023-02-08T05:31:14;99825.47;;;-6.30;82.42
60589;BME280;46421;48.610;9.334;2023-02-08T05:33:41;99825.53;;;-6.88;82.81
60589;BME280;46421;48.610;9.334;2023-02-08T05:36:07;99821.41;;;-5.96;82.44
60589;BME280;46421;48.610;9.334;2023-02-08T05:38:32;99831.69;;;-6.40;82.20
60589;BME280;46421;48.610;9.334;2023-02-08T05:40:57;99827.72;;;-6.61;83.16
60589;BME280;46421;48.610;9.334;2023-02-08T05:43:23;99813.56;;;-5.49;85.14
60589;BME280;46421;48.610;9.334;2023-02-08T05:45:48;99834.97;;;-5.85;81.83
60589;BME280;46421;48.610;9.334;2023-02-08T05:48:14;99839.50;;;-5.95;83.22
60589;BME280;46421;48.610;9.334;2023-02-08T05:50:39;99837.69;;;-5.46;80.70
60589;BME280;46421;48.610;9.334;2023-02-08T05:53:04;99831.75;;;-5.51;82.06
60589;BME280;46421;48.610;9.334;2023-02-08T05:55:30;99835.25;;;-5.13;77.29
60589;BME280;46421;48.610;9.334;2023-02-08T05:57:55;99832.22;;;-4.93;79.11
60589;BME280;46421;48.610;9.334;2023-02-08T06:00:20;99837.91;;;-4.39;78.88
60589;BME280;46421;48.610;9.334;2023-02-08T06:02:46;99834.28;;;-4.69;78.80
60589;BME280;46421;48.610;9.334;2023-02-08T06:05:11;99842.75;;;-4.99;75.50
60589;BME280;46421;48.610;9.334;2023-02-08T06:07:37;99839.59;;;-4.38;81.43
60589;BME280;46421;48.610;9.334;2023-02-08T06:10:02;99838.41;;;-3.91;74.69
60589;BME280;46421;48.610;9.334;2023-02-08T06:12:28;99832.53;;;-3.98;73.65
60589;BME280;46421;48.610;9.334;2023-02-08T06:14:53;99837.66;;;-3.95;74.40
60589;BME280;46421;48.610;9.334;2023-02-08T06:17:18;99841.88;;;-4.98;74.78
60589;BME280;46421;48.610;9.334;2023-02-08T06:19:44;99849.22;;;-5.18;77.14
60589;BME280;46421;48.610;9.334;2023-02-08T06:22:09;99839.19;;;-4.95;76.36
60589;BME280;46421;48.610;9.334;2023-02-08T06:24:34;99838.53;;;-4.65;77.17
60589;BME280;46421;48.610;9.334;2023-02-08T06:27:00;99851.13;;;-4.50;76.28
60589;BME280;46421;48.610;9.334;2023-02-08T06:29:25;99854.91;;;-5.43;76.42
60589;BME280;46421;48.610;9.334;2023-02-08T06:31:50;99853.56;;;-4.80;77.53
60589;BME280;46421;48.610;9.334;2023-02-08T06:34:16;99836.13;;;-4.38;75.48
60589;BME280;46421;48.610;9.334;2023-02-08T06:36:41;99842.63;;;-4.55;76.23
60589;BME280;46421;48.610;9.334;2023-02-08T06:39:06;99846.41;;;-4.34;74.79
60589;BME280;46421;48.610;9.334;2023-02-08T06:41:32;99845.63;;;-4.03;73.99
60589;BME280;46421;48.610;9.334;2023-02-08T06:43:57;99842.84;;;-4.66;75.61
60589;BME280;46421;48.610;9.334;2023-02-08T06:46:24;99833.19;;;-4.24;74.19
60589;BME280;46421;48.610;9.334;2023-02-08T06:48:50;99844.03;;;-4.79;75.00
60589;BME280;46421;48.610;9.334;2023-02-08T06:51:15;99834.25;;;-5.46;73.76
60589;BME280;46421;48.610;9.334;2023-02-08T06:53:40;99843.72;;;-5.45;78.61
60589;BME280;46421;48.610;9.334;2023-02-08T06:56:06;99839.88;;;-5.69;81.94
60589;BME280;46421;48.610;9.334;2023-02-08T06:58:31;99839.63;;;-5.15;75.26
60589;BME280;46421;48.610;9.334;2023-02-08T07:00:56;99846.47;;;-5.11;76.31
60589;BME280;46421;48.610;9.334;2023-02-08T07:03:22;99844.38;;;-4.95;78.04
60589;BME280;46421;48.610;9.334;2023-02-08T07:05:47;99846.34;;;-4.31;78.97
60589;BME280;46421;48.610;9.334;2023-02-08T07:08:13;99854.88;;;-4.62;75.62
60589;BME280;46421;48.610;9.334;2023-02-08T07:10:38;99842.16;;;-4.74;77.92
60589;BME280;46421;48.610;9.334;2023-02-08T07:13:06;99845.00;;;-4.85;75.14
60589;BME280;46421;48.610;9.334;2023-02-08T07:15:32;99842.94;;;-5.08;74.96
60589;BME280;46421;48.610;9.334;2023-02-08T07:17:57;99852.88;;;-5.71;75.32
60589;BME280;46421;48.610;9.334;2023-02-08T07:20:23;99860.56;;;-5.66;77.19
60589;BME280;46421;48.610;9.334;2023-02-08T07:22:48;99846.28;;;-5.03;78.19
60589;BME280;46421;48.610;9.334;2023-02-08T07:25:13;99860.13;;;-5.45;77.67
60589;BME280;46421;48.610;9.334;2023-02-08T07:27:39;99860.31;;;-5.12;76.27
60589;BME280;46421;48.610;9.334;2023-02-08T07:30:05;99857.66;;;-5.51;76.90
60589;BME280;46421;48.610;9.334;2023-02-08T07:32:32;99851.13;;;-4.87;75.46
60589;BME280;46421;48.610;9.334;2023-02-08T07:34:57;99856.25;;;-4.84;72.06
60589;BME280;46421;48.610;9.334;2023-02-08T07:37:24;99852.78;;;-2.87;66.93
60589;BME280;46421;48.610;9.334;2023-02-08T07:39:50;99844.66;;;-0.99;60.89
60589;BME280;46421;48.610;9.334;2023-02-08T07:42:15;99848.13;;;0.30;56.07
60589;BME280;46421;48.610;9.334;2023-02-08T07:44:40;99852.72;;;1.03;51.46
60589;BME280;46421;48.610;9.334;2023-02-08T07:47:06;99854.16;;;2.01;50.05
60589;BME280;46421;48.610;9.334;2023-02-08T07:49:32;99851.78;;;2.48;49.09
60589;BME280;46421;48.610;9.334;2023-02-08T07:51:59;99865.09;;;2.94;46.79
60589;BME280;46421;48.610;9.334;2023-02-08T07:54:24;99858.81;;;3.13;45.12
60589;BME280;46421;48.610;9.334;2023-02-08T07:56:49;99864.03;;;4.07;44.37
60589;BME280;46421;48.610;9.334;2023-02-08T07:59:15;99860.53;;;4.37;44.08
60589;BME280;46421;48.610;9.334;2023-02-08T08:01:40;99867.97;;;4.74;41.78
60589;BME280;46421;48.610;9.334;2023-02-08T08:04:06;99859.13;;;4.89;42.24
60589;BME280;46421;48.610;9.334;2023-02-08T08:06:31;99862.59;;;5.86;39.80
60589;BME280;46421;48.610;9.334;2023-02-08T08:08:56;99863.47;;;6.53;38.22
60589;BME280;46421;48.610;9.334;2023-02-08T08:11:22;99858.41;;;5.97;38.67
60589;BME280;46421;48.610;9.334;2023-02-08T08:13:48;99850.94;;;8.74;36.29
60589;BME280;46421;48.610;9.334;2023-02-08T08:16:14;99850.81;;;8.64;32.38
60589;BME280;46421;48.610;9.334;2023-02-08T08:18:39;99841.25;;;6.69;37.54
60589;BME280;46421;48.610;9.334;2023-02-08T08:21:05;99835.91;;;7.07;36.30
60589;BME280;46421;48.610;9.334;2023-02-08T08:23:30;99848.97;;;9.32;33.62
60589;BME280;46421;48.610;9.334;2023-02-08T08:26:11;99828.06;;;7.67;33.85
60589;BME280;46421;48.610;9.334;2023-02-08T08:28:38;99840.72;;;7.26;34.66
60589;BME280;46421;48.610;9.334;2023-02-08T08:31:15;99840.81;;;8.09;33.60
60589;BME280;46421;48.610;9.334;2023-02-08T08:33:41;99847.44;;;8.50;32.28
60589;BME280;46421;48.610;9.334;2023-02-08T08:36:07;99839.06;;;7.85;35.39
60589;BME280;46421;48.610;9.334;2023-02-08T08:38:33;99843.47;;;8.90;33.38
60589;BME280;46421;48.610;9.334;2023-02-08T08:40:58;99839.97;;;8.78;31.03
60589;BME280;46421;48.610;9.334;2023-02-08T08:43:23;99835.31;;;9.37;30.71
60589;BME280;46421;48.610;9.334;2023-02-08T08:45:49;99839.91;;;9.79;31.33
60589;BME280;46421;48.610;9.334;2023-02-08T08:48:14;99831.09;;;10.42;30.03
60589;BME280;46421;48.610;9.334;2023-02-08T08:50:39;99836.16;;;12.44;28.54
60589;BME280;46421;48.610;9.334;2023-02-08T08:53:07;99845.22;;;10.00;28.17
60589;BME280;46421;48.610;9.334;2023-02-08T08:55:33;99846.25;;;8.89;30.75
60589;BME280;46421;48.610;9.334;2023-02-08T08:57:58;99829.44;;;10.41;31.28
60589;BME280;46421;48.610;9.334;2023-02-08T09:00:23;99832.75;;;11.05;27.74
60589;BME280;46421;48.610;9.334;2023-02-08T09:02:49;99837.25;;;10.21;29.49
60589;BME280;46421;48.610;9.334;2023-02-08T09:05:14;99832.22;;;12.96;26.17
60589;BME280;46421;48.610;9.334;2023-02-08T09:07:40;99831.19;;;11.92;27.61
60589;BME280;46421;48.610;9.334;2023-02-08T09:10:05;99837.31;;;12.52;27.27
60589;BME280;46421;48.610;9.334;2023-02-08T09:12:31;99829.22;;;11.84;27.40
60589;BME280;46421;48.610;9.334;2023-02-08T09:14:56;99823.00;;;12.43;26.80
60589;BME280;46421;48.610;9.334;2023-02-08T09:17:21;99820.69;;;11.71;26.57
60589;BME280;46421;48.610;9.334;2023-02-08T09:19:47;99823.50;;;11.69;27.46
60589;BME280;46421;48.610;9.334;2023-02-08T09:22:12;99826.72;;;12.97;25.56
60589;BME280;46421;48.610;9.334;2023-02-08T09:24:38;99829.94;;;14.01;24.56
60589;BME280;46421;48.610;9.334;2023-02-08T09:27:04;99829.13;;;13.19;25.84
60589;BME280;46421;48.610;9.334;2023-02-08T09:29:29;99819.25;;;11.47;26.11
60589;BME280;46421;48.610;9.334;2023-02-08T09:31:56;99820.63;;;14.58;23.22
60589;BME280;46421;48.610;9.334;2023-02-08T09:34:22;99812.63;;;12.40;25.88
60589;BME280;46421;48.610;9.334;2023-02-08T09:36:47;99819.78;;;12.77;26.06
60589;BME280;46421;48.610;9.334;2023-02-08T09:39:16;99812.56;;;14.50;23.90
60589;BME280;46421;48.610;9.334;2023-02-08T09:41:58;99815.47;;;14.30;23.74
60589;BME280;46421;48.610;9.334;2023-02-08T09:47:36;99809.63;;;12.53;23.59
60589;BME280;46421;48.610;9.334;2023-02-08T09:50:09;99804.44;;;12.51;23.00
60589;BME280;46421;48.610;9.334;2023-02-08T09:52:54;99812.38;;;12.71;23.07
60589;BME280;46421;48.610;9.334;2023-02-08T09:58:11;99792.06;;;11.83;22.66
60589;BME280;46421;48.610;9.334;2023-02-08T10:00:43;99805.34;;;12.32;23.01
60589;BME280;46421;48.610;9.334;2023-02-08T10:03:22;99801.59;;;12.62;23.31
60589;BME280;46421;48.610;9.334;2023-02-08T10:05:50;99793.06;;;12.49;22.50
60589;BME280;46421;48.610;9.334;2023-02-08T10:08:15;99797.59;;;13.04;21.32
60589;BME280;46421;48.610;9.334;2023-02-08T10:10:50;99796.06;;;13.84;23.05
60589;BME280;46421;48.610;9.334;2023-02-08T10:13:24;99796.41;;;13.17;22.74
60589;BME280;46421;48.610;9.334;2023-02-08T10:16:06;99790.69;;;14.54;20.14
60589;BME280;46421;48.610;9.334;2023-02-08T10:19:07;99792.63;;;14.70;21.32
60589;BME280;46421;48.610;9.334;2023-02-08T10:24:13;99795.06;;;14.64;21.42
60589;BME280;46421;48.610;9.334;2023-02-08T10:34:51;99789.97;;;12.54;23.17
60589;BME280;46421;48.610;9.334;2023-02-08T10:37:37;99783.06;;;12.61;24.07
60589;BME280;46421;48.610;9.334;2023-02-08T10:40:31;99792.03;;;12.60;22.77
60589;BME280;46421;48.610;9.334;2023-02-08T10:43:20;99784.22;;;11.42;23.56
60589;BME280;46421;48.610;9.334;2023-02-08T10:46:07;99783.22;;;11.92;23.64
60589;BME280;46421;48.610;9.334;2023-02-08T10:48:44;99778.66;;;13.62;22.81
60589;BME280;46421;48.610;9.334;2023-02-08T10:51:14;99779.03;;;13.67;22.50
60589;BME280;46421;48.610;9.334;2023-02-08T10:53:40;99775.81;;;13.81;21.78
60589;BME280;46421;48.610;9.334;2023-02-08T10:56:06;99775.34;;;12.86;24.32
60589;BME280;46421;48.610;9.334;2023-02-08T10:58:40;99779.31;;;12.81;24.15
60589;BME280;46421;48.610;9.334;2023-02-08T11:01:07;99769.66;;;13.63;23.10
60589;BME280;46421;48.610;9.334;2023-02-08T11:03:33;99761.06;;;13.23;23.81
60589;BME280;46421;48.610;9.334;2023-02-08T11:05:59;99755.06;;;14.62;21.53
60589;BME280;46421;48.610;9.334;2023-02-08T11:08:25;99752.41;;;14.28;21.15
60589;BME280;46421;48.610;9.334;2023-02-08T11:11:02;99756.34;;;14.15;22.17
60589;BME280;46421;48.610;9.334;2023-02-08T11:13:38;99747.31;;;15.53;21.07
60589;BME280;46421;48.610;9.334;2023-02-08T11:16:05;99736.56;;;15.45;20.60
60589;BME280;46421;48.610;9.334;2023-02-08T11:18:37;99744.34;;;16.37;20.41
60589;BME280;46421;48.610;9.334;2023-02-08T11:21:06;99724.34;;;15.92;20.32
60589;BME280;46421;48.610;9.334;2023-02-08T11:23:40;99738.59;;;15.76;20.09
60589;BME280;46421;48.610;9.334;2023-02-08T11:26:22;99741.94;;;14.69;20.10
60589;BME280;46421;48.610;9.334;2023-02-08T11:29:12;99734.34;;;13.05;22.15
60589;BME280;46421;48.610;9.334;2023-02-08T11:31:39;99724.81;;;15.21;19.74
60589;BME280;46421;48.610;9.334;2023-02-08T11:34:39;99732.56;;;15.90;19.33
60589;BME280;46421;48.610;9.334;2023-02-08T11:37:19;99729.88;;;12.77;22.30
60589;BME280;46421;48.610;9.334;2023-02-08T11:39:52;99720.94;;;13.15;21.75
60589;BME280;46421;48.610;9.334;2023-02-08T11:42:31;99711.63;;;15.28;21.10
60589;BME280;46421;48.610;9.334;2023-02-08T11:44:59;99717.38;;;14.13;21.58
60589;BME280;46421;48.610;9.334;2023-02-08T11:47:27;99706.75;;;12.96;23.05
60589;BME280;46421;48.610;9.334;2023-02-08T11:49:56;99711.13;;;12.87;22.62
60589;BME280;46421;48.610;9.334;2023-02-08T11:52:24;99709.22;;;14.57;21.13
60589;BME280;46421;48.610;9.334;2023-02-08T11:54:52;99711.19;;;13.86;22.22
60589;BME280;46421;48.610;9.334;2023-02-08T11:57:23;99711.25;;;14.63;21.38
60589;BME280;46421;48.610;9.334;2023-02-08T11:59:51;99706.91;;;15.38;20.76
60589;BME280;46421;48.610;9.334;2023-02-08T12:05:01;99693.03;;;15.34;21.95
60589;BME280;46421;48.610;9.334;2023-02-08T12:10:26;99702.03;;;12.90;22.51
60589;BME280;46421;48.610;9.334;2023-02-08T12:15:54;99696.06;;;16.77;20.00
60589;BME280;46421;48.610;9.334;2023-02-08T12:18:26;99697.41;;;12.64;22.99
60589;BME280;46421;48.610;9.334;2023-02-08T12:23:48;99684.78;;;13.02;23.00
60589;BME280;46421;48.610;9.334;2023-02-08T12:26:45;99685.25;;;14.04;23.21
60589;BME280;46421;48.610;9.334;2023-02-08T12:29:45;99676.41;;;14.47;23.67
60589;BME280;46421;48.610;9.334;2023-02-08T12:32:30;99662.22;;;13.77;22.53
60589;BME280;46421;48.610;9.334;2023-02-08T12:35:21;99678.88;;;13.97;21.64
60589;BME280;46421;48.610;9.334;2023-02-08T12:37:58;99666.47;;;13.25;23.09
60589;BME280;46421;48.610;9.334;2023-02-08T12:40:52;99666.19;;;12.18;23.12
60589;BME280;46421;48.610;9.334;2023-02-08T12:43:40;99656.84;;;12.78;24.25
60589;BME280;46421;48.610;9.334;2023-02-08T12:49:01;99652.34;;;11.95;26.42
60589;BME280;46421;48.610;9.334;2023-02-08T12:51:39;99643.13;;;11.13;25.22
60589;BME280;46421;48.610;9.334;2023-02-08T12:54:13;99640.91;;;10.88;25.59
60589;BME280;46421;48.610;9.334;2023-02-08T12:56:43;99644.88;;;9.29;27.43
60589;BME280;46421;48.610;9.334;2023-02-08T12:59:24;99639.00;;;9.78;27.27
60589;BME280;46421;48.610;9.334;2023-02-08T13:01:55;99631.41;;;9.21;28.13
60589;BME280;46421;48.610;9.334;2023-02-08T13:04:29;99631.53;;;8.43;28.85
60589;BME280;46421;48.610;9.334;2023-02-08T13:07:01;99616.66;;;8.63;29.66
60589;BME280;46421;48.610;9.334;2023-02-08T13:09:47;99624.81;;;7.82;31.38
60589;BME280;46421;48.610;9.334;2023-02-08T13:12:18;99607.63;;;7.88;31.13
60589;BME280;46421;48.610;9.334;2023-02-08T13:14:51;99606.06;;;7.63;31.14
60589;BME280;46421;48.610;9.334;2023-02-08T13:17:23;99597.41;;;7.95;31.93
60589;BME280;46421;48.610;9.334;2023-02-08T13:19:57;99594.63;;;7.73;31.00
60589;BME280;46421;48.610;9.334;2023-02-08T13:22:25;99598.09;;;6.93;32.24
60589;BME280;46421;48.610;9.334;2023-02-08T13:24:51;99588.78;;;7.11;32.75
60589;BME280;46421;48.610;9.334;2023-02-08T13:27:21;99594.66;;;6.31;34.82
60589;BME280;46421;48.610;9.334;2023-02-08T13:29:49;99600.88;;;5.93;35.15
60589;BME280;46421;48.610;9.334;2023-02-08T13:32:28;99600.03;;;5.79;35.34
60589;BME280;46421;48.610;9.334;2023-02-08T13:35:22;99595.44;;;5.44;37.32
60589;BME280;46421;48.610;9.334;2023-02-08T13:37:51;99590.88;;;5.46;38.44
60589;BME280;46421;48.610;9.334;2023-02-08T13:40:27;99593.84;;;4.75;37.29
60589;BME280;46421;48.610;9.334;2023-02-08T13:43:28;99583.63;;;4.43;38.49
60589;BME280;46421;48.610;9.334;2023-02-08T13:45:58;99595.97;;;4.28;39.13
60589;BME280;46421;48.610;9.334;2023-02-08T13:48:24;99591.06;;;4.37;39.50
60589;BME280;46421;48.610;9.334;2023-02-08T13:50:52;99588.53;;;4.08;40.20
60589;BME280;46421;48.610;9.334;2023-02-08T13:56:07;99606.13;;;3.78;40.53
60589;BME280;46421;48.610;9.334;2023-02-08T13:59:23;99615.81;;;3.49;40.91
60589;BME280;46421;48.610;9.334;2023-02-08T14:01:27;99607.34;;;3.58;41.90
60589;BME280;46421;48.610;9.334;2023-02-08T14:06:44;99617.13;;;3.56;39.89
60589;BME280;46421;48.610;9.334;2023-02-08T14:09:22;99603.22;;;3.54;40.49
60589;BME280;46421;48.610;9.334;2023-02-08T14:12:05;99609.94;;;3.29;40.43
60589;BME280;46421;48.610;9.334;2023-02-08T14:14:36;99597.53;;;3.03;40.78
60589;BME280;46421;48.610;9.334;2023-02-08T14:17:19;99601.38;;;2.81;41.58
60589;BME280;46421;48.610;9.334;2023-02-08T14:19:57;99610.38;;;3.07;41.22
60589;BME280;46421;48.610;9.334;2023-02-08T14:22:25;99615.56;;;3.09;41.50
60589;BME280;46421;48.610;9.334;2023-02-08T14:25:07;99616.31;;;2.80;41.90
60589;BME280;46421;48.610;9.334;2023-02-08T14:27:43;99615.41;;;3.26;41.94